createdAt,value
2023-11-15T00:01:21.354Z,8.50
2023-11-15T00:03:48.999Z,8.40
2023-11-15T00:06:17.447Z,8.30
2023-11-15T00:08:45.154Z,8.20
2023-11-15T00:11:12.714Z,8.00
2023-11-15T00:13:40.342Z,7.90
2023-11-15T00:16:08.547Z,7.80
2023-11-15T00:18:36.175Z,7.80
2023-11-15T00:21:05.002Z,7.70
2023-11-15T00:23:33.707Z,7.80
2023-11-15T00:26:01.146Z,7.80
2023-11-15T00:28:28.821Z,7.80
2023-11-15T00:30:56.378Z,7.90
2023-11-15T00:33:24.068Z,7.90
2023-11-15T00:35:51.646Z,7.90
2023-11-15T00:38:19.284Z,7.90
2023-11-15T00:40:47.642Z,7.90
2023-11-15T00:43:16.694Z,7.90
2023-11-15T00:45:44.981Z,7.90
2023-11-15T00:50:40.982Z,7.90
2023-11-15T00:53:10.223Z,7.90
2023-11-15T00:55:37.763Z,8.10
2023-11-15T00:58:05.370Z,8.00
2023-11-15T01:00:40.831Z,8.00
2023-11-15T01:03:08.599Z,8.00
2023-11-15T01:05:36.182Z,8.00
2023-11-15T01:08:05.575Z,8.00
2023-11-15T01:10:33.200Z,8.00
2023-11-15T01:13:00.856Z,8.00
2023-11-15T01:15:28.434Z,8.00
2023-11-15T01:17:58.442Z,7.90
2023-11-15T01:20:26.585Z,8.00
2023-11-15T01:22:54.183Z,7.90
2023-11-15T01:25:22.863Z,7.90
2023-11-15T01:27:50.391Z,7.80
2023-11-15T01:30:17.893Z,7.90
2023-11-15T01:32:45.497Z,7.90
2023-11-15T01:35:13.197Z,7.90
2023-11-15T01:37:40.823Z,7.90
2023-11-15T01:40:09.161Z,7.90
2023-11-15T01:42:36.733Z,8.00
2023-11-15T01:45:04.914Z,7.90
2023-11-15T01:47:32.820Z,7.90
2023-11-15T01:50:01.806Z,7.90
2023-11-15T01:52:29.973Z,7.90
2023-11-15T01:55:00.058Z,7.90
2023-11-15T01:57:27.859Z,8.00
2023-11-15T01:59:56.168Z,7.90
2023-11-15T02:02:23.832Z,8.00
2023-11-15T02:04:51.395Z,8.00
2023-11-15T02:07:19.472Z,8.10
2023-11-15T02:09:47.149Z,8.10
2023-11-15T02:12:15.129Z,8.10
2023-11-15T02:14:43.145Z,8.10
2023-11-15T02:17:10.727Z,8.10
2023-11-15T02:19:38.652Z,8.10
2023-11-15T02:22:06.272Z,8.20
2023-11-15T02:24:33.811Z,8.10
2023-11-15T02:27:01.383Z,8.10
2023-11-15T02:29:28.873Z,8.10
2023-11-15T02:31:56.362Z,8.10
2023-11-15T02:34:23.910Z,8.10
2023-11-15T02:36:51.584Z,8.10
2023-11-15T02:39:19.094Z,8.10
2023-11-15T02:41:46.690Z,8.10
2023-11-15T02:44:14.218Z,8.10
2023-11-15T02:46:41.754Z,8.10
2023-11-15T02:49:09.586Z,8.10
2023-11-15T02:51:37.188Z,8.10
2023-11-15T02:54:05.324Z,8.10
2023-11-15T02:56:32.834Z,8.00
2023-11-15T02:59:00.347Z,8.10
2023-11-15T03:01:27.888Z,8.00
2023-11-15T03:03:55.686Z,8.00
2023-11-15T03:06:23.280Z,8.00
2023-11-15T03:08:51.479Z,8.00
2023-11-15T03:11:19.060Z,8.00
2023-11-15T03:13:46.746Z,7.90
2023-11-15T03:16:14.229Z,8.00
2023-11-15T03:18:44.221Z,8.00
2023-11-15T03:21:11.943Z,8.00
2023-11-15T03:23:40.263Z,8.00
2023-11-15T03:26:09.000Z,8.00
2023-11-15T03:28:37.015Z,8.00
2023-11-15T03:31:07.231Z,7.90
2023-11-15T03:33:34.880Z,7.90
2023-11-15T03:36:02.540Z,7.90
2023-11-15T03:38:30.233Z,7.90
2023-11-15T03:40:57.957Z,7.90
2023-11-15T03:43:25.540Z,7.90
2023-11-15T03:45:53.268Z,8.00
2023-11-15T03:48:20.986Z,8.00
2023-11-15T03:50:48.563Z,8.00
2023-11-15T03:53:17.772Z,8.00
2023-11-15T03:55:47.631Z,8.10
2023-11-15T03:58:15.537Z,8.10
2023-11-15T04:00:43.482Z,8.10
2023-11-15T04:03:11.339Z,8.10
2023-11-15T04:05:39.162Z,8.10
2023-11-15T04:08:06.773Z,8.10
2023-11-15T04:10:34.244Z,8.10
2023-11-15T04:13:01.792Z,8.10
2023-11-15T04:15:29.862Z,8.20
2023-11-15T04:17:57.524Z,8.20
2023-11-15T04:20:25.131Z,8.20
2023-11-15T04:22:52.675Z,8.20
2023-11-15T04:25:20.218Z,8.30
2023-11-15T04:27:47.791Z,8.30
2023-11-15T04:30:17.183Z,8.30
2023-11-15T04:32:46.676Z,8.30
2023-11-15T04:35:14.917Z,8.30
2023-11-15T04:37:42.480Z,8.40
2023-11-15T04:40:11.464Z,8.40
2023-11-15T04:42:40.132Z,8.40
2023-11-15T04:45:08.397Z,8.30
2023-11-15T04:47:36.694Z,8.40
2023-11-15T04:50:05.636Z,8.40
2023-11-15T04:52:33.108Z,8.30
2023-11-15T04:55:00.872Z,8.40
2023-11-15T04:57:30.600Z,8.40
2023-11-15T04:59:58.281Z,8.40
2023-11-15T05:02:28.483Z,8.40
2023-11-15T05:04:56.704Z,8.30
2023-11-15T05:07:26.236Z,8.30
2023-11-15T05:09:54.738Z,8.40
2023-11-15T05:12:23.306Z,8.40
2023-11-15T05:14:51.665Z,8.40
2023-11-15T05:17:19.196Z,8.40
2023-11-15T05:19:46.760Z,8.40
2023-11-15T05:22:14.308Z,8.40
2023-11-15T05:24:42.380Z,8.40
2023-11-15T05:27:11.115Z,8.40
2023-11-15T05:29:38.990Z,8.40
2023-11-15T05:32:06.873Z,8.30
2023-11-15T05:34:34.605Z,8.30
2023-11-15T05:37:02.201Z,8.40
2023-11-15T05:39:29.730Z,8.50
2023-11-15T05:41:57.348Z,8.50
2023-11-15T05:44:24.831Z,8.40
2023-11-15T05:46:52.546Z,8.50
2023-11-15T05:49:20.167Z,8.50
2023-11-15T05:51:47.639Z,8.50
2023-11-15T05:54:15.606Z,8.50
2023-11-15T05:56:49.042Z,8.50
2023-11-15T05:59:16.587Z,8.60
2023-11-15T06:01:44.474Z,8.70
2023-11-15T06:04:12.054Z,8.70
2023-11-15T06:06:39.625Z,8.60
2023-11-15T06:09:07.164Z,8.60
2023-11-15T06:11:34.814Z,8.70
2023-11-15T06:14:02.400Z,8.80
2023-11-15T06:16:29.942Z,8.60
2023-11-15T06:18:57.504Z,8.60
2023-11-15T06:21:24.955Z,8.60
2023-11-15T06:23:52.708Z,8.50
2023-11-15T06:26:21.032Z,8.60
2023-11-15T06:28:50.343Z,8.50
2023-11-15T06:31:19.802Z,8.30
2023-11-15T06:33:47.513Z,8.10
2023-11-15T06:36:17.143Z,8.10
2023-11-15T06:38:45.609Z,8.00
2023-11-15T06:41:13.317Z,8.00
2023-11-15T06:43:40.865Z,7.90
2023-11-15T06:46:08.579Z,7.90
2023-11-15T06:48:36.313Z,7.90
2023-11-15T06:51:06.184Z,7.80
2023-11-15T06:53:34.280Z,8.00
2023-11-15T06:56:01.865Z,8.00
2023-11-15T06:58:29.407Z,8.00
2023-11-15T07:00:56.961Z,8.00
2023-11-15T07:03:24.685Z,8.00
2023-11-15T07:05:52.476Z,8.10
2023-11-15T07:08:23.279Z,8.00
2023-11-15T07:10:50.865Z,8.00
2023-11-15T07:13:18.401Z,8.00
2023-11-15T07:15:45.932Z,8.00
2023-11-15T07:18:13.581Z,8.00
2023-11-15T07:20:42.894Z,8.00
2023-11-15T07:23:10.577Z,8.00
2023-11-15T07:25:38.062Z,8.00
2023-11-15T07:28:06.139Z,7.90
2023-11-15T07:30:34.262Z,8.00
2023-11-15T07:33:01.953Z,7.90
2023-11-15T07:35:30.031Z,7.90
2023-11-15T07:37:57.733Z,7.90
2023-11-15T07:40:25.306Z,8.00
2023-11-15T07:42:52.873Z,8.10
2023-11-15T07:45:20.503Z,8.10
2023-11-15T07:47:48.178Z,8.10
2023-11-15T07:50:17.248Z,8.10
2023-11-15T07:52:46.479Z,8.10
2023-11-15T07:55:14.290Z,8.00
2023-11-15T07:57:41.843Z,8.00
2023-11-15T08:00:12.493Z,8.10
2023-11-15T08:02:42.882Z,8.10
2023-11-15T08:05:11.443Z,8.10
2023-11-15T08:07:39.553Z,8.10
2023-11-15T08:10:08.251Z,8.10
2023-11-15T08:12:37.456Z,8.10
2023-11-15T08:15:06.613Z,8.20
2023-11-15T08:17:37.734Z,8.10
2023-11-15T08:20:10.651Z,8.10
2023-11-15T08:22:39.215Z,8.10
2023-11-15T08:25:11.013Z,8.20
2023-11-15T08:27:39.954Z,8.20
2023-11-15T08:30:19.055Z,8.20
2023-11-15T08:32:48.571Z,8.30
2023-11-15T08:35:17.936Z,8.40
2023-11-15T08:37:46.974Z,8.40
2023-11-15T08:40:26.065Z,8.50
2023-11-15T08:42:58.343Z,8.50
2023-11-15T08:45:27.022Z,8.50
2023-11-15T08:47:59.117Z,8.60
2023-11-15T08:50:28.514Z,8.60
2023-11-15T08:52:56.326Z,8.60
2023-11-15T08:55:24.623Z,8.60
2023-11-15T08:57:52.254Z,8.60
2023-11-15T09:00:19.953Z,8.60
2023-11-15T09:02:49.539Z,8.60
2023-11-15T09:05:21.096Z,8.60
2023-11-15T09:07:48.979Z,8.50
2023-11-15T09:10:17.616Z,8.60
2023-11-15T09:12:48.233Z,8.60
2023-11-15T09:15:16.195Z,8.70
2023-11-15T09:17:47.693Z,8.70
2023-11-15T09:20:21.983Z,8.70
2023-11-15T09:22:49.962Z,8.70
2023-11-15T09:25:31.529Z,8.60
2023-11-15T09:28:01.201Z,8.60
2023-11-15T09:30:32.205Z,8.70
2023-11-15T09:33:01.241Z,8.70
2023-11-15T09:35:32.673Z,8.70
2023-11-15T09:38:00.457Z,8.70
2023-11-15T09:40:28.846Z,8.70
2023-11-15T09:43:00.170Z,8.70
2023-11-15T09:45:28.029Z,8.70
2023-11-15T09:47:58.167Z,8.70
2023-11-15T09:50:28.138Z,8.60
2023-11-15T09:52:56.869Z,8.50
2023-11-15T09:55:25.779Z,8.60
2023-11-15T09:57:54.257Z,8.60
2023-11-15T10:00:24.134Z,8.50
2023-11-15T10:02:53.800Z,8.50
2023-11-15T10:05:25.101Z,8.30
2023-11-15T10:08:09.891Z,8.10
2023-11-15T10:10:38.841Z,8.00
2023-11-15T10:13:26.844Z,8.10
2023-11-15T10:15:55.895Z,8.00
2023-11-15T10:18:33.511Z,7.90
2023-11-15T10:21:13.198Z,7.80
2023-11-15T10:23:42.670Z,7.90
2023-11-15T10:26:10.965Z,7.90
2023-11-15T10:28:41.047Z,7.80
2023-11-15T10:31:20.075Z,7.60
2023-11-15T10:33:52.461Z,7.60
2023-11-15T10:36:22.877Z,7.60
2023-11-15T10:39:00.867Z,7.70
2023-11-15T10:41:32.081Z,7.70
2023-11-15T10:44:00.509Z,7.60
2023-11-15T10:46:30.748Z,7.70
2023-11-15T10:49:00.846Z,7.80
2023-11-15T10:51:42.729Z,8.00
2023-11-15T10:54:12.654Z,8.00
2023-11-15T10:56:43.537Z,8.10
2023-11-15T10:59:14.750Z,8.10
2023-11-15T11:01:42.951Z,8.20
2023-11-15T11:04:13.061Z,8.30
2023-11-15T11:06:59.244Z,8.30
2023-11-15T11:09:47.523Z,8.30
2023-11-15T11:12:19.588Z,8.30
2023-11-15T11:14:47.621Z,8.30
2023-11-15T11:17:36.089Z,8.30
2023-11-15T11:20:24.185Z,8.20
2023-11-15T11:23:12.531Z,8.20
2023-11-15T11:25:40.765Z,8.20
2023-11-15T11:28:14.295Z,8.20
2023-11-15T11:30:43.651Z,8.30
2023-11-15T11:33:20.526Z,8.30
2023-11-15T11:35:49.600Z,8.30
2023-11-15T11:38:45.488Z,8.30
2023-11-15T11:41:14.030Z,8.30
2023-11-15T11:43:43.201Z,8.30
2023-11-15T11:46:17.340Z,8.30
2023-11-15T11:48:45.305Z,8.30
2023-11-15T11:51:13.063Z,8.30
2023-11-15T11:53:43.733Z,8.40
2023-11-15T11:56:12.127Z,8.40
2023-11-15T11:58:40.806Z,8.50
2023-11-15T12:01:11.508Z,8.70
2023-11-15T12:03:45.773Z,8.80
2023-11-15T12:06:13.978Z,8.70
2023-11-15T12:08:51.070Z,8.60
2023-11-15T12:11:22.768Z,8.40
2023-11-15T12:13:52.396Z,8.30
2023-11-15T12:16:26.943Z,8.20
2023-11-15T12:19:04.048Z,8.10
2023-11-15T12:21:37.812Z,8.10
2023-11-15T12:24:07.646Z,8.10
2023-11-15T12:27:03.647Z,8.10
2023-11-15T12:29:36.772Z,7.90
2023-11-15T12:32:05.698Z,7.90
2023-11-15T12:34:33.473Z,8.00
2023-11-15T12:37:01.156Z,7.90
2023-11-15T12:39:39.138Z,7.90
2023-11-15T12:42:06.972Z,7.90
2023-11-15T12:44:48.261Z,7.90
2023-11-15T12:47:17.610Z,7.80
2023-11-15T12:49:45.380Z,7.90
2023-11-15T12:52:13.004Z,8.10
2023-11-15T12:54:59.118Z,8.10
2023-11-15T12:57:27.739Z,8.10
2023-11-15T12:59:55.208Z,8.20
2023-11-15T13:02:27.924Z,8.30
2023-11-15T13:04:55.922Z,8.30
2023-11-15T13:07:23.414Z,8.30
2023-11-15T13:09:50.955Z,8.30
2023-11-15T13:12:27.973Z,8.30
2023-11-15T13:14:56.230Z,8.30
2023-11-15T13:17:25.115Z,8.30
2023-11-15T13:19:52.572Z,8.30
2023-11-15T13:22:20.045Z,8.30
2023-11-15T13:24:50.351Z,8.30
2023-11-15T13:27:19.251Z,8.20
2023-11-15T13:29:47.024Z,8.20
2023-11-15T13:32:15.764Z,8.20
2023-11-15T13:34:46.616Z,8.20
2023-11-15T13:37:14.504Z,8.20
2023-11-15T13:39:42.066Z,8.20
2023-11-15T13:42:09.792Z,8.20
2023-11-15T13:44:37.436Z,8.30
2023-11-15T13:47:07.608Z,8.30
2023-11-15T13:49:35.170Z,8.20
2023-11-15T13:52:02.666Z,8.20
2023-11-15T13:54:30.284Z,8.20
2023-11-15T13:56:58.662Z,8.20
2023-11-15T13:59:26.159Z,8.30
2023-11-15T14:01:53.565Z,8.20
2023-11-15T14:04:21.076Z,8.20
2023-11-15T14:06:48.808Z,8.30
2023-11-15T14:09:16.332Z,8.30
2023-11-15T14:11:46.096Z,8.30
2023-11-15T14:14:13.757Z,8.30
2023-11-15T14:16:41.861Z,8.30
2023-11-15T14:19:11.291Z,8.30
2023-11-15T14:21:40.258Z,8.30
2023-11-15T14:24:09.517Z,8.30
2023-11-15T14:26:37.387Z,8.30
2023-11-15T14:29:09.331Z,8.30
2023-11-15T14:31:38.909Z,8.20
2023-11-15T14:34:08.503Z,8.20
2023-11-15T14:36:38.548Z,8.20
2023-11-15T14:39:08.806Z,8.30
2023-11-15T14:41:36.407Z,8.20
2023-11-15T14:44:05.064Z,8.20
2023-11-15T14:46:34.165Z,8.20
2023-11-15T14:49:02.137Z,8.10
2023-11-15T14:51:29.779Z,8.10
2023-11-15T14:53:57.493Z,8.10
2023-11-15T14:56:25.339Z,8.10
2023-11-15T14:58:54.557Z,8.10
2023-11-15T15:01:25.117Z,8.20
2023-11-15T15:03:53.654Z,8.10
2023-11-15T15:06:21.382Z,8.10
2023-11-15T15:08:48.951Z,8.00
2023-11-15T15:11:16.663Z,7.90
2023-11-15T15:13:44.272Z,7.80
2023-11-15T15:16:13.090Z,7.80
2023-11-15T15:18:41.817Z,7.80
2023-11-15T15:21:11.107Z,7.80
2023-11-15T15:23:38.776Z,7.70
2023-11-15T15:26:06.657Z,7.70
2023-11-15T15:28:34.562Z,7.70
2023-11-15T15:31:02.276Z,7.60
2023-11-15T15:33:30.075Z,7.60
2023-11-15T15:35:58.747Z,7.60
2023-11-15T15:38:27.051Z,7.60
2023-11-15T15:40:55.551Z,7.50
2023-11-15T15:43:23.132Z,7.40
2023-11-15T15:45:50.798Z,7.40
2023-11-15T15:48:19.155Z,7.30
2023-11-15T15:50:48.706Z,7.30
2023-11-15T15:53:16.219Z,7.30
2023-11-15T15:55:44.378Z,7.30
2023-11-15T15:58:12.175Z,7.20
2023-11-15T16:00:39.788Z,7.10
2023-11-15T16:03:07.510Z,7.10
2023-11-15T16:05:35.098Z,7.00
2023-11-15T16:08:02.708Z,6.90
2023-11-15T16:10:30.426Z,6.90
2023-11-15T16:12:58.812Z,6.80
2023-11-15T16:15:26.788Z,6.80
2023-11-15T16:17:55.576Z,6.80
2023-11-15T16:20:23.176Z,6.70
2023-11-15T16:22:52.766Z,6.70
2023-11-15T16:25:20.410Z,6.70
2023-11-15T16:27:48.018Z,6.70
2023-11-15T16:30:15.735Z,6.80
2023-11-15T16:32:43.704Z,6.70
2023-11-15T16:35:11.413Z,6.70
2023-11-15T16:37:42.794Z,6.70
2023-11-15T16:40:11.768Z,6.80
2023-11-15T16:42:40.423Z,6.70
2023-11-15T16:45:09.682Z,6.50
2023-11-15T16:47:39.717Z,6.50
2023-11-15T16:50:08.608Z,6.50
2023-11-15T16:52:36.432Z,6.50
2023-11-15T16:55:06.752Z,6.40
2023-11-15T16:57:34.590Z,6.40
2023-11-15T17:00:02.308Z,6.40
2023-11-15T17:02:29.911Z,6.30
2023-11-15T17:04:58.268Z,6.10
2023-11-15T17:07:25.830Z,6.10
2023-11-15T17:09:53.490Z,6.00
2023-11-15T17:12:21.478Z,6.00
2023-11-15T17:14:49.228Z,6.00
2023-11-15T17:17:17.303Z,6.00
2023-11-15T17:19:47.704Z,6.00
2023-11-15T17:22:15.452Z,5.90
2023-11-15T17:24:44.238Z,5.90
2023-11-15T17:27:11.887Z,5.90
2023-11-15T17:29:40.665Z,5.90
2023-11-15T17:32:08.583Z,5.70
2023-11-15T17:34:37.302Z,5.60
2023-11-15T17:37:05.012Z,5.50
2023-11-15T17:39:33.432Z,5.50
2023-11-15T17:42:01.181Z,5.40
2023-11-15T17:44:30.643Z,5.40
2023-11-15T17:46:58.567Z,5.40
2023-11-15T17:49:26.068Z,5.40
2023-11-15T17:51:54.644Z,5.40
2023-11-15T17:54:24.037Z,5.20
2023-11-15T17:56:51.747Z,5.10
2023-11-15T17:59:19.376Z,5.20
2023-11-15T18:01:47.056Z,5.10
2023-11-15T18:04:16.418Z,5.00
2023-11-15T18:06:44.678Z,5.10
2023-11-15T18:09:13.147Z,5.10
2023-11-15T18:11:41.001Z,5.00
2023-11-15T18:14:08.468Z,4.80
2023-11-15T18:16:36.262Z,4.80
2023-11-15T18:19:10.058Z,4.90
2023-11-15T18:21:38.886Z,4.90
2023-11-15T18:24:07.431Z,4.90
2023-11-15T18:26:38.094Z,4.90
2023-11-15T18:29:05.800Z,5.00
2023-11-15T18:31:33.401Z,4.90
2023-11-15T18:34:01.454Z,4.90
2023-11-15T18:36:30.861Z,4.80
2023-11-15T18:38:58.888Z,4.80
2023-11-15T18:41:26.594Z,4.70
2023-11-15T18:43:57.952Z,4.60
2023-11-15T18:46:26.127Z,4.70
2023-11-15T18:48:53.740Z,4.80
2023-11-15T18:51:23.489Z,4.60
2023-11-15T18:53:51.357Z,4.70
2023-11-15T18:56:18.959Z,4.70
2023-11-15T18:58:46.840Z,4.70
2023-11-15T19:01:14.483Z,4.80
2023-11-15T19:03:42.435Z,4.80
2023-11-15T19:06:10.312Z,4.90
2023-11-15T19:08:37.877Z,4.80
2023-11-15T19:11:06.913Z,4.90
2023-11-15T19:13:34.477Z,5.00
2023-11-15T19:16:02.219Z,4.90
2023-11-15T19:18:30.047Z,4.70
2023-11-15T19:20:58.994Z,4.50
2023-11-15T19:23:27.043Z,4.50
2023-11-15T19:25:54.752Z,4.40
2023-11-15T19:28:23.629Z,4.40
2023-11-15T19:30:51.276Z,4.40
2023-11-15T19:33:20.867Z,4.40
2023-11-15T19:35:49.722Z,4.30
2023-11-15T19:38:17.641Z,4.40
2023-11-15T19:40:46.085Z,4.40
2023-11-15T19:43:13.997Z,4.50
2023-11-15T19:45:41.997Z,4.60
2023-11-15T19:48:10.572Z,4.60
2023-11-15T19:50:39.647Z,4.50
2023-11-15T19:53:08.485Z,4.50
2023-11-15T19:55:39.615Z,4.50
2023-11-15T19:58:07.146Z,4.50
2023-11-15T20:00:37.767Z,4.50
2023-11-15T20:03:11.070Z,4.50
2023-11-15T20:05:42.003Z,4.40
2023-11-15T20:08:10.312Z,4.30
2023-11-15T20:10:37.891Z,4.30
2023-11-15T20:13:06.619Z,4.20
2023-11-15T20:15:35.008Z,4.00
2023-11-15T20:18:03.543Z,4.00
2023-11-15T20:20:31.158Z,4.10
2023-11-15T20:22:59.984Z,4.00
2023-11-15T20:25:27.487Z,3.80
2023-11-15T20:27:55.175Z,3.70
2023-11-15T20:30:23.327Z,3.80
2023-11-15T20:32:53.485Z,3.80
2023-11-15T20:35:23.745Z,3.90
2023-11-15T20:37:54.283Z,3.90
2023-11-15T20:40:26.804Z,4.00
2023-11-15T20:42:54.484Z,4.10
2023-11-15T20:45:23.259Z,4.10
2023-11-15T20:47:51.484Z,4.20
2023-11-15T20:50:19.213Z,4.20
2023-11-15T20:52:48.341Z,4.10
2023-11-15T20:55:20.554Z,4.20
2023-11-15T20:57:48.040Z,3.80
2023-11-15T21:00:26.481Z,3.70
2023-11-15T21:02:55.265Z,3.60
2023-11-15T21:05:23.206Z,3.70
2023-11-15T21:07:50.789Z,3.70
2023-11-15T21:10:20.045Z,3.60
2023-11-15T21:12:47.682Z,3.50
2023-11-15T21:15:16.835Z,3.50
2023-11-15T21:17:45.709Z,3.60
2023-11-15T21:20:13.537Z,3.70
2023-11-15T21:22:41.535Z,3.70
2023-11-15T21:25:15.345Z,3.70
2023-11-15T21:27:43.793Z,3.60
2023-11-15T21:30:13.364Z,3.60
2023-11-15T21:32:42.362Z,3.50
2023-11-15T21:35:12.015Z,3.50
2023-11-15T21:37:43.857Z,3.60
2023-11-15T21:40:17.053Z,3.50
2023-11-15T21:42:45.793Z,3.60
2023-11-15T21:45:14.377Z,3.60
2023-11-15T21:47:43.834Z,3.60
2023-11-15T21:50:16.112Z,3.70
2023-11-15T21:52:44.757Z,3.70
2023-11-15T21:55:12.623Z,3.60
2023-11-15T21:57:40.254Z,3.50
2023-11-15T22:00:16.011Z,3.50
2023-11-15T22:02:43.869Z,3.60
2023-11-15T22:05:11.698Z,3.50
2023-11-15T22:07:40.081Z,3.50
2023-11-15T22:10:11.436Z,3.50
2023-11-15T22:12:39.500Z,3.40
2023-11-15T22:15:08.723Z,3.30
2023-11-15T22:17:41.357Z,3.30
2023-11-15T22:20:11.833Z,3.20
2023-11-15T22:22:40.685Z,3.10
2023-11-15T22:25:08.202Z,3.10
2023-11-15T22:27:35.751Z,3.10
2023-11-15T22:30:03.571Z,3.10
2023-11-15T22:32:31.176Z,3.10
2023-11-15T22:34:58.744Z,3.10
2023-11-15T22:37:26.318Z,3.30
2023-11-15T22:39:53.804Z,3.10
2023-11-15T22:42:21.370Z,3.00
2023-11-15T22:44:48.862Z,3.00
2023-11-15T22:47:16.396Z,2.90
2023-11-15T22:49:44.372Z,2.90
2023-11-15T22:52:11.887Z,2.90
2023-11-15T22:54:41.069Z,3.00
2023-11-15T22:57:08.827Z,3.10
2023-11-15T22:59:37.909Z,3.10
2023-11-15T23:02:05.560Z,3.20
2023-11-15T23:04:33.274Z,3.20
2023-11-15T23:07:00.961Z,3.10
2023-11-15T23:09:28.612Z,3.10
2023-11-15T23:11:57.529Z,2.80
2023-11-15T23:14:25.141Z,3.00
2023-11-15T23:16:52.784Z,3.00
2023-11-15T23:19:21.371Z,3.10
2023-11-15T23:21:58.840Z,3.10
2023-11-15T23:24:30.933Z,3.20
2023-11-15T23:27:00.309Z,3.10
2023-11-15T23:29:30.695Z,2.90
2023-11-15T23:31:58.660Z,2.80
2023-11-15T23:34:26.293Z,2.80
2023-11-15T23:36:55.257Z,2.80
2023-11-15T23:39:24.267Z,2.90
2023-11-15T23:41:52.083Z,2.70
2023-11-15T23:44:19.812Z,2.80
2023-11-15T23:46:50.845Z,2.80
2023-11-15T23:49:19.984Z,2.80
2023-11-15T23:51:47.456Z,2.90
2023-11-15T23:54:15.051Z,2.80
2023-11-15T23:56:43.381Z,2.80
2023-11-15T23:59:11.163Z,2.90
